createdAt,value
2023-02-06T00:00:02.889Z,76.00
2023-02-06T00:01:02.574Z,76.00
2023-02-06T00:02:03.189Z,76.00
2023-02-06T00:03:02.644Z,75.00
2023-02-06T00:04:02.789Z,76.00
2023-02-06T00:05:02.705Z,75.00
2023-02-06T00:06:02.620Z,75.00
2023-02-06T00:07:03.028Z,76.00
2023-02-06T00:08:02.720Z,75.00
2023-02-06T00:09:02.763Z,75.00
2023-02-06T00:10:03.006Z,75.00
2023-02-06T00:11:02.820Z,75.00
2023-02-06T00:12:02.345Z,76.00
2023-02-06T00:13:01.696Z,76.00
2023-02-06T00:14:02.300Z,76.00
2023-02-06T00:15:01.996Z,76.00
2023-02-06T00:16:02.287Z,76.00
2023-02-06T00:17:08.837Z,76.00
2023-02-06T00:18:02.355Z,76.00
2023-02-06T00:19:02.659Z,76.00
2023-02-06T00:20:02.427Z,75.00
2023-02-06T00:21:02.942Z,74.00
2023-02-06T00:22:03.172Z,74.00
2023-02-06T00:23:02.736Z,74.00
2023-02-06T00:24:03.050Z,74.00
2023-02-06T00:25:02.897Z,74.00
2023-02-06T00:26:02.930Z,74.00
2023-02-06T00:27:01.860Z,74.00
2023-02-06T00:28:02.209Z,74.00
2023-02-06T00:29:02.017Z,75.00
2023-02-06T00:30:02.120Z,75.00
2023-02-06T00:31:02.024Z,73.00
2023-02-06T00:32:02.008Z,73.00
2023-02-06T00:33:01.981Z,74.00
2023-02-06T00:34:02.457Z,74.00
2023-02-06T00:35:01.820Z,74.00
2023-02-06T00:36:02.055Z,74.00
2023-02-06T00:37:02.260Z,74.00
2023-02-06T00:38:02.898Z,74.00
2023-02-06T00:39:02.644Z,75.00
2023-02-06T00:40:02.451Z,75.00
2023-02-06T00:41:02.896Z,73.00
2023-02-06T00:42:01.630Z,74.00
2023-02-06T00:43:01.963Z,74.00
2023-02-06T00:44:02.162Z,73.00
2023-02-06T00:45:01.891Z,73.00
2023-02-06T00:46:02.340Z,74.00
2023-02-06T00:47:02.052Z,74.00
2023-02-06T00:48:02.019Z,74.00
2023-02-06T00:49:02.244Z,74.00
2023-02-06T00:50:01.966Z,75.00
2023-02-06T00:51:02.162Z,75.00
2023-02-06T00:52:02.163Z,75.00
2023-02-06T00:53:02.337Z,74.00
2023-02-06T00:54:01.885Z,74.00
2023-02-06T00:55:02.387Z,74.00
2023-02-06T00:56:02.213Z,74.00
2023-02-06T00:57:02.435Z,74.00
2023-02-06T00:58:02.093Z,74.00
2023-02-06T00:59:02.285Z,74.00
2023-02-06T01:00:02.534Z,74.00
2023-02-06T01:01:02.147Z,74.00
2023-02-06T01:02:03.701Z,74.00
2023-02-06T01:03:03.662Z,75.00
2023-02-06T01:04:03.718Z,75.00
2023-02-06T01:05:03.062Z,74.00
2023-02-06T01:06:03.620Z,74.00
2023-02-06T01:07:02.805Z,74.00
2023-02-06T01:08:04.451Z,74.00
2023-02-06T01:09:03.029Z,74.00
2023-02-06T01:10:03.126Z,75.00
2023-02-06T01:11:02.605Z,75.00
2023-02-06T01:12:02.996Z,75.00
2023-02-06T01:13:03.128Z,75.00
2023-02-06T01:14:03.240Z,75.00
2023-02-06T01:15:03.076Z,75.00
2023-02-06T01:16:03.092Z,75.00
2023-02-06T01:17:03.105Z,76.00
2023-02-06T01:18:03.059Z,76.00
2023-02-06T01:19:03.024Z,76.00
2023-02-06T01:20:02.760Z,76.00
2023-02-06T01:21:02.863Z,76.00
2023-02-06T01:22:03.732Z,76.00
2023-02-06T01:23:03.422Z,77.00
2023-02-06T01:24:03.526Z,77.00
2023-02-06T01:25:03.486Z,77.00
2023-02-06T01:26:03.273Z,77.00
2023-02-06T01:27:02.755Z,77.00
2023-02-06T01:28:02.667Z,77.00
2023-02-06T01:29:02.801Z,77.00
2023-02-06T01:30:02.942Z,77.00
2023-02-06T01:31:02.835Z,78.00
2023-02-06T01:32:03.080Z,78.00
2023-02-06T01:33:02.682Z,78.00
2023-02-06T01:34:02.728Z,78.00
2023-02-06T01:35:02.873Z,78.00
2023-02-06T01:36:03.017Z,78.00
2023-02-06T01:37:03.143Z,78.00
2023-02-06T01:38:03.321Z,78.00
2023-02-06T01:39:03.286Z,78.00
2023-02-06T01:40:03.064Z,78.00
2023-02-06T01:41:03.340Z,78.00
2023-02-06T01:42:02.815Z,78.00
2023-02-06T01:43:03.114Z,78.00
2023-02-06T01:44:03.123Z,78.00
2023-02-06T01:45:02.804Z,78.00
2023-02-06T01:46:03.172Z,78.00
2023-02-06T01:47:03.280Z,78.00
2023-02-06T01:48:03.685Z,78.00
2023-02-06T01:49:06.006Z,78.00
2023-02-06T01:50:03.151Z,78.00
2023-02-06T01:51:03.461Z,78.00
2023-02-06T01:52:02.952Z,78.00
2023-02-06T01:53:03.075Z,78.00
2023-02-06T01:54:03.155Z,78.00
2023-02-06T01:55:03.068Z,78.00
2023-02-06T01:56:02.910Z,78.00
2023-02-06T01:57:02.836Z,78.00
2023-02-06T01:58:03.021Z,78.00
2023-02-06T01:59:02.583Z,78.00
2023-02-06T02:00:02.891Z,78.00
2023-02-06T02:01:02.748Z,78.00
2023-02-06T02:02:02.082Z,79.00
2023-02-06T02:03:01.884Z,79.00
2023-02-06T02:04:02.305Z,79.00
2023-02-06T02:05:01.800Z,79.00
2023-02-06T02:06:02.213Z,79.00
2023-02-06T02:07:02.678Z,79.00
2023-02-06T02:08:02.557Z,79.00
2023-02-06T02:09:02.969Z,79.00
2023-02-06T02:10:02.391Z,79.00
2023-02-06T02:11:02.744Z,79.00
2023-02-06T02:12:02.710Z,79.00
2023-02-06T02:13:02.887Z,79.00
2023-02-06T02:14:02.565Z,79.00
2023-02-06T02:15:02.925Z,79.00
2023-02-06T02:16:02.699Z,79.00
2023-02-06T02:17:03.110Z,80.00
2023-02-06T02:18:02.771Z,79.00
2023-02-06T02:19:02.879Z,79.00
2023-02-06T02:20:02.784Z,79.00
2023-02-06T02:21:03.166Z,79.00
2023-02-06T02:22:02.178Z,79.00
2023-02-06T02:23:02.307Z,79.00
2023-02-06T02:24:02.092Z,78.00
2023-02-06T02:25:02.462Z,79.00
2023-02-06T02:26:02.633Z,79.00
2023-02-06T02:27:02.766Z,80.00
2023-02-06T02:28:02.687Z,80.00
2023-02-06T02:29:02.637Z,80.00
2023-02-06T02:30:02.772Z,80.00
2023-02-06T02:31:02.329Z,80.00
2023-02-06T02:32:02.373Z,80.00
2023-02-06T02:33:02.621Z,80.00
2023-02-06T02:34:02.776Z,80.00
2023-02-06T02:35:02.930Z,81.00
2023-02-06T02:36:02.379Z,80.00
2023-02-06T02:37:02.785Z,80.00
2023-02-06T02:38:02.434Z,80.00
2023-02-06T02:39:03.068Z,79.00
2023-02-06T02:40:02.958Z,79.00
2023-02-06T02:41:02.770Z,80.00
2023-02-06T02:42:02.583Z,79.00
2023-02-06T02:43:03.115Z,79.00
2023-02-06T02:44:02.450Z,80.00
2023-02-06T02:45:02.851Z,80.00
2023-02-06T02:46:03.027Z,80.00
2023-02-06T02:47:03.062Z,80.00
2023-02-06T02:48:03.048Z,80.00
2023-02-06T02:49:02.441Z,80.00
2023-02-06T02:50:02.747Z,81.00
2023-02-06T02:51:02.428Z,80.00
2023-02-06T02:52:02.392Z,80.00
2023-02-06T02:53:02.382Z,80.00
2023-02-06T02:54:02.212Z,81.00
2023-02-06T02:55:02.186Z,80.00
2023-02-06T02:56:02.038Z,80.00
2023-02-06T02:57:02.185Z,80.00
2023-02-06T02:58:02.576Z,80.00
2023-02-06T02:59:02.495Z,80.00
2023-02-06T03:00:02.435Z,80.00
2023-02-06T03:01:02.431Z,81.00
2023-02-06T03:02:02.987Z,81.00
2023-02-06T03:03:02.821Z,81.00
2023-02-06T03:04:02.322Z,82.00
2023-02-06T03:05:02.839Z,82.00
2023-02-06T03:06:02.339Z,83.00
2023-02-06T03:07:02.184Z,83.00
2023-02-06T03:08:01.905Z,83.00
2023-02-06T03:09:01.945Z,84.00
2023-02-06T03:10:01.709Z,84.00
2023-02-06T03:11:02.030Z,84.00
2023-02-06T03:12:02.433Z,84.00
2023-02-06T03:13:02.559Z,84.00
2023-02-06T03:14:02.178Z,85.00
2023-02-06T03:15:02.318Z,85.00
2023-02-06T03:16:02.303Z,85.00
2023-02-06T03:17:02.689Z,84.00
2023-02-06T03:18:02.261Z,85.00
2023-02-06T03:19:02.313Z,84.00
2023-02-06T03:20:02.564Z,84.00
2023-02-06T03:21:02.274Z,84.00
2023-02-06T03:22:01.926Z,84.00
2023-02-06T03:23:01.595Z,84.00
2023-02-06T03:24:02.040Z,84.00
2023-02-06T03:25:01.834Z,84.00
2023-02-06T03:26:01.508Z,83.00
2023-02-06T03:27:02.006Z,83.00
2023-02-06T03:28:01.590Z,83.00
2023-02-06T03:29:01.735Z,83.00
2023-02-06T03:30:02.094Z,83.00
2023-02-06T03:31:01.940Z,83.00
2023-02-06T03:32:01.737Z,84.00
2023-02-06T03:33:02.038Z,84.00
2023-02-06T03:34:01.814Z,83.00
2023-02-06T03:35:02.172Z,83.00
2023-02-06T03:36:01.787Z,83.00
2023-02-06T03:37:01.383Z,83.00
2023-02-06T03:38:01.304Z,82.00
2023-02-06T03:39:01.417Z,82.00
2023-02-06T03:40:01.735Z,82.00
2023-02-06T03:41:01.777Z,83.00
2023-02-06T03:42:02.110Z,82.00
2023-02-06T03:43:02.323Z,82.00
2023-02-06T03:44:01.909Z,82.00
2023-02-06T03:45:02.433Z,82.00
2023-02-06T03:46:02.119Z,82.00
2023-02-06T03:47:02.304Z,83.00
2023-02-06T03:48:02.238Z,83.00
2023-02-06T03:49:02.233Z,83.00
2023-02-06T03:50:01.974Z,84.00
2023-02-06T03:51:02.106Z,84.00
2023-02-06T03:52:02.430Z,84.00
2023-02-06T03:53:02.153Z,84.00
2023-02-06T03:54:02.308Z,84.00
2023-02-06T03:55:02.263Z,84.00
2023-02-06T03:56:02.189Z,84.00
2023-02-06T03:57:01.384Z,83.00
2023-02-06T03:58:01.374Z,83.00
2023-02-06T03:59:01.826Z,83.00
2023-02-06T04:00:01.322Z,83.00
2023-02-06T04:01:01.451Z,84.00
2023-02-06T04:02:03.011Z,84.00
2023-02-06T04:03:02.507Z,84.00
2023-02-06T04:04:02.579Z,84.00
2023-02-06T04:05:02.384Z,84.00
2023-02-06T04:06:02.324Z,85.00
2023-02-06T04:07:03.124Z,85.00
2023-02-06T04:08:02.948Z,85.00
2023-02-06T04:09:03.511Z,85.00
2023-02-06T04:10:03.123Z,85.00
2023-02-06T04:11:03.117Z,86.00
2023-02-06T04:12:03.371Z,86.00
2023-02-06T04:13:02.932Z,86.00
2023-02-06T04:14:03.041Z,86.00
2023-02-06T04:15:02.999Z,86.00
2023-02-06T04:16:03.055Z,86.00
2023-02-06T04:17:02.983Z,86.00
2023-02-06T04:18:04.507Z,86.00
2023-02-06T04:19:02.636Z,86.00
2023-02-06T04:20:03.097Z,87.00
2023-02-06T04:21:02.533Z,86.00
2023-02-06T04:22:02.621Z,86.00
2023-02-06T04:23:02.378Z,86.00
2023-02-06T04:24:02.366Z,86.00
2023-02-06T04:25:02.402Z,86.00
2023-02-06T04:26:02.375Z,86.00
2023-02-06T04:27:02.767Z,86.00
2023-02-06T04:28:02.891Z,86.00
2023-02-06T04:29:02.824Z,86.00
2023-02-06T04:31:02.727Z,86.00
2023-02-06T04:32:03.038Z,85.00
2023-02-06T04:33:03.088Z,85.00
2023-02-06T04:34:02.887Z,85.00
2023-02-06T04:35:02.483Z,84.00
2023-02-06T04:36:02.485Z,84.00
2023-02-06T04:37:03.405Z,84.00
2023-02-06T04:38:02.982Z,84.00
2023-02-06T04:39:03.300Z,84.00
2023-02-06T04:40:03.319Z,83.00
2023-02-06T04:41:03.408Z,83.00
2023-02-06T04:42:03.165Z,83.00
2023-02-06T04:43:03.310Z,83.00
2023-02-06T04:44:03.210Z,83.00
2023-02-06T04:45:03.022Z,83.00
2023-02-06T04:46:03.277Z,83.00
2023-02-06T04:47:02.680Z,83.00
2023-02-06T04:48:02.256Z,82.00
2023-02-06T04:49:02.756Z,82.00
2023-02-06T04:50:02.172Z,82.00
2023-02-06T04:51:02.558Z,82.00
2023-02-06T04:52:02.447Z,82.00
2023-02-06T04:53:02.842Z,83.00
2023-02-06T04:54:02.888Z,82.00
2023-02-06T04:55:02.690Z,82.00
2023-02-06T04:56:02.690Z,82.00
2023-02-06T04:57:02.957Z,82.00
2023-02-06T04:58:02.414Z,82.00
2023-02-06T04:59:02.952Z,82.00
2023-02-06T05:00:02.368Z,82.00
2023-02-06T05:01:02.847Z,81.00
2023-02-06T05:02:02.789Z,82.00
2023-02-06T05:03:02.589Z,81.00
2023-02-06T05:04:02.518Z,82.00
2023-02-06T05:05:03.030Z,81.00
2023-02-06T05:06:02.901Z,81.00
2023-02-06T05:07:05.454Z,82.00
2023-02-06T05:08:02.616Z,82.00
2023-02-06T05:09:02.454Z,82.00
2023-02-06T05:10:02.941Z,82.00
2023-02-06T05:11:02.523Z,82.00
2023-02-06T05:12:03.018Z,82.00
2023-02-06T05:13:02.855Z,82.00
2023-02-06T05:14:02.710Z,82.00
2023-02-06T05:15:03.036Z,82.00
2023-02-06T05:16:03.079Z,82.00
2023-02-06T05:17:02.268Z,82.00
2023-02-06T05:18:02.118Z,82.00
2023-02-06T05:19:02.080Z,82.00
2023-02-06T05:20:02.482Z,82.00
2023-02-06T05:21:02.235Z,82.00
2023-02-06T05:22:03.066Z,82.00
2023-02-06T05:23:02.639Z,82.00
2023-02-06T05:24:02.612Z,82.00
2023-02-06T05:25:02.613Z,82.00
2023-02-06T05:26:03.111Z,82.00
2023-02-06T05:27:02.284Z,82.00
2023-02-06T05:28:02.946Z,82.00
2023-02-06T05:29:02.337Z,81.00
2023-02-06T05:30:02.461Z,81.00
2023-02-06T05:31:02.990Z,81.00
2023-02-06T05:32:02.438Z,81.00
2023-02-06T05:33:02.853Z,81.00
2023-02-06T05:34:02.737Z,81.00
2023-02-06T05:35:02.901Z,81.00
2023-02-06T05:36:02.366Z,81.00
2023-02-06T05:37:02.988Z,82.00
2023-02-06T05:38:02.740Z,82.00
2023-02-06T05:39:02.932Z,82.00
2023-02-06T05:40:03.230Z,82.00
2023-02-06T05:41:02.905Z,83.00
2023-02-06T05:42:02.190Z,83.00
2023-02-06T05:43:02.316Z,83.00
2023-02-06T05:44:02.408Z,83.00
2023-02-06T05:45:02.169Z,83.00
2023-02-06T05:46:02.432Z,83.00
2023-02-06T05:47:02.790Z,83.00
2023-02-06T05:48:02.917Z,84.00
2023-02-06T05:49:02.593Z,84.00
2023-02-06T05:50:02.736Z,84.00
2023-02-06T05:51:02.785Z,84.00
2023-02-06T05:52:03.076Z,83.00
2023-02-06T05:53:02.905Z,84.00
2023-02-06T05:54:02.829Z,84.00
2023-02-06T05:55:02.799Z,84.00
2023-02-06T05:56:02.967Z,84.00
2023-02-06T05:57:01.886Z,85.00
2023-02-06T05:58:02.217Z,84.00
2023-02-06T05:59:01.873Z,83.00
2023-02-06T06:00:02.255Z,83.00
2023-02-06T06:01:02.305Z,84.00
2023-02-06T06:02:02.787Z,84.00
2023-02-06T06:03:02.418Z,84.00
2023-02-06T06:04:02.719Z,83.00
2023-02-06T06:05:02.649Z,83.00
2023-02-06T06:06:02.428Z,83.00
2023-02-06T06:07:02.547Z,83.00
2023-02-06T06:08:02.316Z,83.00
2023-02-06T06:09:02.454Z,83.00
2023-02-06T06:10:02.137Z,83.00
2023-02-06T06:11:02.244Z,83.00
2023-02-06T06:12:02.697Z,83.00
2023-02-06T06:13:02.408Z,83.00
2023-02-06T06:14:02.379Z,83.00
2023-02-06T06:15:02.390Z,83.00
2023-02-06T06:16:02.534Z,83.00
2023-02-06T06:17:02.209Z,83.00
2023-02-06T06:18:02.000Z,83.00
2023-02-06T06:19:02.124Z,84.00
2023-02-06T06:20:01.739Z,84.00
2023-02-06T06:21:01.894Z,85.00
2023-02-06T06:22:02.155Z,85.00
2023-02-06T06:23:02.630Z,86.00
2023-02-06T06:24:02.490Z,85.00
2023-02-06T06:25:02.078Z,85.00
2023-02-06T06:26:02.596Z,85.00
2023-02-06T06:27:02.009Z,85.00
2023-02-06T06:28:01.802Z,85.00
2023-02-06T06:29:01.893Z,85.00
2023-02-06T06:30:02.256Z,84.00
2023-02-06T06:31:02.252Z,84.00
2023-02-06T06:32:02.419Z,84.00
2023-02-06T06:33:02.596Z,84.00
2023-02-06T06:34:02.776Z,85.00
2023-02-06T06:35:02.197Z,85.00
2023-02-06T06:36:02.540Z,85.00
2023-02-06T06:37:02.090Z,85.00
2023-02-06T06:38:01.579Z,85.00
2023-02-06T06:39:01.860Z,85.00
2023-02-06T06:40:01.727Z,85.00
2023-02-06T06:41:01.690Z,85.00
2023-02-06T06:42:02.108Z,85.00
2023-02-06T06:43:02.255Z,85.00
2023-02-06T06:44:01.944Z,85.00
2023-02-06T06:45:01.748Z,86.00
2023-02-06T06:46:01.892Z,86.00
2023-02-06T06:47:01.929Z,86.00
2023-02-06T06:48:02.258Z,87.00
2023-02-06T06:49:01.951Z,87.00
2023-02-06T06:50:02.477Z,87.00
2023-02-06T06:51:02.311Z,88.00
2023-02-06T06:52:02.621Z,89.00
2023-02-06T06:53:02.645Z,88.00
2023-02-06T06:54:02.276Z,88.00
2023-02-06T06:55:02.168Z,88.00
2023-02-06T06:56:02.270Z,88.00
2023-02-06T06:57:02.726Z,89.00
2023-02-06T06:58:02.437Z,88.00
2023-02-06T06:59:02.414Z,88.00
2023-02-06T07:00:02.226Z,89.00
2023-02-06T07:01:02.370Z,89.00
2023-02-06T07:02:02.480Z,89.00
2023-02-06T07:03:03.120Z,89.00
2023-02-06T07:04:02.302Z,89.00
2023-02-06T07:05:02.417Z,89.00
2023-02-06T07:06:02.582Z,89.00
2023-02-06T07:07:03.235Z,89.00
2023-02-06T07:08:03.339Z,89.00
2023-02-06T07:09:03.473Z,89.00
2023-02-06T07:10:03.153Z,89.00
2023-02-06T07:11:03.065Z,89.00
2023-02-06T07:12:02.015Z,89.00
2023-02-06T07:13:02.066Z,89.00
2023-02-06T07:14:02.081Z,89.00
2023-02-06T07:15:02.327Z,89.00
2023-02-06T07:16:02.352Z,89.00
2023-02-06T07:17:02.820Z,88.00
2023-02-06T07:18:03.009Z,88.00
2023-02-06T07:19:02.811Z,88.00
2023-02-06T07:20:02.940Z,88.00
2023-02-06T07:21:02.746Z,88.00
2023-02-06T07:22:02.043Z,88.00
2023-02-06T07:23:02.471Z,88.00
2023-02-06T07:24:02.008Z,87.00
2023-02-06T07:25:02.113Z,87.00
2023-02-06T07:26:02.172Z,87.00
2023-02-06T07:27:02.442Z,87.00
2023-02-06T07:28:02.645Z,87.00
2023-02-06T07:29:02.252Z,87.00
2023-02-06T07:30:02.183Z,87.00
2023-02-06T07:31:02.022Z,87.00
2023-02-06T07:32:02.644Z,87.00
2023-02-06T07:33:02.857Z,87.00
2023-02-06T07:34:03.050Z,87.00
2023-02-06T07:35:02.722Z,87.00
2023-02-06T07:36:04.117Z,87.00
2023-02-06T07:37:02.574Z,86.00
2023-02-06T07:38:03.014Z,86.00
2023-02-06T07:39:02.650Z,86.00
2023-02-06T07:40:02.732Z,86.00
2023-02-06T07:41:02.633Z,86.00
2023-02-06T07:42:02.126Z,86.00
2023-02-06T07:43:02.018Z,86.00
2023-02-06T07:44:02.084Z,86.00
2023-02-06T07:45:01.861Z,87.00
2023-02-06T07:46:02.562Z,86.00
2023-02-06T07:47:02.654Z,86.00
2023-02-06T07:48:02.412Z,86.00
2023-02-06T07:49:02.508Z,86.00
2023-02-06T07:50:02.486Z,86.00
2023-02-06T07:51:02.095Z,86.00
2023-02-06T07:52:02.489Z,86.00
2023-02-06T07:53:02.411Z,86.00
2023-02-06T07:54:02.963Z,86.00
2023-02-06T07:55:02.721Z,86.00
2023-02-06T07:56:02.939Z,86.00
2023-02-06T07:57:01.950Z,86.00
2023-02-06T07:58:02.014Z,86.00
2023-02-06T07:59:01.988Z,86.00
2023-02-06T08:00:02.343Z,86.00
2023-02-06T08:01:02.453Z,86.00
2023-02-06T08:02:02.750Z,86.00
2023-02-06T08:03:02.302Z,86.00
2023-02-06T08:04:02.486Z,86.00
2023-02-06T08:05:02.417Z,86.00
2023-02-06T08:06:02.563Z,86.00
2023-02-06T08:07:03.245Z,86.00
2023-02-06T08:08:03.234Z,86.00
2023-02-06T08:09:03.187Z,86.00
2023-02-06T08:10:03.240Z,86.00
2023-02-06T08:11:02.956Z,86.00
2023-02-06T08:12:02.993Z,86.00
2023-02-06T08:13:03.308Z,85.00
2023-02-06T08:14:03.403Z,85.00
2023-02-06T08:15:03.561Z,85.00
2023-02-06T08:16:03.566Z,86.00
2023-02-06T08:17:02.571Z,86.00
2023-02-06T08:18:02.765Z,86.00
2023-02-06T08:19:02.841Z,86.00
2023-02-06T08:20:03.055Z,86.00
2023-02-06T08:21:02.823Z,86.00
2023-02-06T08:22:03.326Z,86.00
2023-02-06T08:23:03.272Z,86.00
2023-02-06T08:24:03.369Z,86.00
2023-02-06T08:25:03.321Z,86.00
2023-02-06T08:26:03.362Z,86.00
2023-02-06T08:27:02.462Z,86.00
2023-02-06T08:28:02.833Z,86.00
2023-02-06T08:29:02.626Z,86.00
2023-02-06T08:30:02.231Z,86.00
2023-02-06T08:31:02.801Z,86.00
2023-02-06T08:32:02.724Z,86.00
2023-02-06T08:33:02.914Z,86.00
2023-02-06T08:34:02.392Z,86.00
2023-02-06T08:35:02.973Z,86.00
2023-02-06T08:36:02.637Z,87.00
2023-02-06T08:37:03.043Z,87.00
2023-02-06T08:38:02.727Z,87.00
2023-02-06T08:39:03.017Z,87.00
2023-02-06T08:40:02.608Z,87.00
2023-02-06T08:41:02.734Z,87.00
2023-02-06T08:42:02.903Z,87.00
2023-02-06T08:43:03.313Z,87.00
2023-02-06T08:44:03.310Z,87.00
2023-02-06T08:45:03.155Z,87.00
2023-02-06T08:46:02.812Z,88.00
2023-02-06T08:47:10.020Z,87.00
2023-02-06T08:48:02.194Z,88.00
2023-02-06T08:49:02.337Z,88.00
2023-02-06T08:50:03.710Z,88.00
2023-02-06T08:51:02.677Z,88.00
2023-02-06T08:52:03.123Z,88.00
2023-02-06T08:53:02.946Z,88.00
2023-02-06T08:54:03.332Z,88.00
2023-02-06T08:55:03.043Z,88.00
2023-02-06T08:56:03.156Z,88.00
2023-02-06T08:57:02.037Z,88.00
2023-02-06T08:58:01.941Z,88.00
2023-02-06T08:59:01.963Z,89.00
2023-02-06T09:00:02.446Z,88.00
2023-02-06T09:01:02.424Z,88.00
2023-02-06T09:02:02.757Z,88.00
2023-02-06T09:03:02.905Z,88.00
2023-02-06T09:04:03.103Z,88.00
2023-02-06T09:05:02.457Z,88.00
2023-02-06T09:06:09.874Z,88.00
2023-02-06T09:07:03.459Z,88.00
2023-02-06T09:08:03.204Z,87.00
2023-02-06T09:09:03.422Z,87.00
2023-02-06T09:10:03.224Z,87.00
2023-02-06T09:11:02.792Z,87.00
2023-02-06T09:12:03.126Z,87.00
2023-02-06T09:13:03.135Z,87.00
2023-02-06T09:14:03.252Z,88.00
2023-02-06T09:15:03.224Z,87.00
2023-02-06T09:16:03.027Z,86.00
2023-02-06T09:17:03.571Z,86.00
2023-02-06T09:18:03.338Z,86.00
2023-02-06T09:19:03.600Z,86.00
2023-02-06T09:20:03.471Z,86.00
2023-02-06T09:21:03.258Z,86.00
2023-02-06T09:22:02.821Z,86.00
2023-02-06T09:23:02.617Z,87.00
2023-02-06T09:24:02.546Z,87.00
2023-02-06T09:25:02.947Z,87.00
2023-02-06T09:26:02.891Z,87.00
2023-02-06T09:27:02.558Z,87.00
2023-02-06T09:28:02.927Z,86.00
2023-02-06T09:29:03.288Z,86.00
2023-02-06T09:30:03.055Z,86.00
2023-02-06T09:31:02.909Z,86.00
2023-02-06T09:32:03.002Z,85.00
2023-02-06T09:33:03.205Z,85.00
2023-02-06T09:34:03.059Z,85.00
2023-02-06T09:35:03.266Z,85.00
2023-02-06T09:36:03.395Z,85.00
2023-02-06T09:37:02.905Z,85.00
2023-02-06T09:38:02.453Z,85.00
2023-02-06T09:39:02.886Z,84.00
2023-02-06T09:40:02.376Z,85.00
2023-02-06T09:41:02.544Z,85.00
2023-02-06T09:42:03.277Z,85.00
2023-02-06T09:43:02.701Z,85.00
2023-02-06T09:44:03.198Z,85.00
2023-02-06T09:45:02.818Z,85.00
2023-02-06T09:46:03.043Z,85.00
2023-02-06T09:47:02.809Z,85.00
2023-02-06T09:48:02.196Z,85.00
2023-02-06T09:49:02.722Z,85.00
2023-02-06T09:50:02.685Z,85.00
2023-02-06T09:51:02.773Z,84.00
2023-02-06T09:52:02.780Z,84.00
2023-02-06T09:53:02.761Z,84.00
2023-02-06T09:54:02.600Z,84.00
2023-02-06T09:55:02.382Z,84.00
2023-02-06T09:56:02.269Z,84.00
2023-02-06T09:57:03.468Z,85.00
2023-02-06T09:58:03.461Z,85.00
2023-02-06T09:59:03.514Z,85.00
2023-02-06T10:00:02.920Z,85.00
2023-02-06T10:01:03.172Z,85.00
2023-02-06T10:02:03.031Z,85.00
2023-02-06T10:03:02.520Z,84.00
2023-02-06T10:04:02.661Z,83.00
2023-02-06T10:05:02.401Z,83.00
2023-02-06T10:06:02.516Z,83.00
2023-02-06T10:07:02.539Z,82.00
2023-02-06T10:08:03.138Z,82.00
2023-02-06T10:09:02.830Z,81.00
2023-02-06T10:10:02.550Z,81.00
2023-02-06T10:11:02.803Z,80.00
2023-02-06T10:12:01.758Z,81.00
2023-02-06T10:13:01.947Z,80.00
2023-02-06T10:14:01.836Z,80.00
2023-02-06T10:15:02.107Z,79.00
2023-02-06T10:16:01.859Z,79.00
2023-02-06T10:17:02.228Z,79.00
2023-02-06T10:18:02.151Z,79.00
2023-02-06T10:19:02.329Z,79.00
2023-02-06T10:20:02.064Z,80.00
2023-02-06T10:21:02.356Z,81.00
2023-02-06T10:22:03.174Z,80.00
2023-02-06T10:23:02.682Z,80.00
2023-02-06T10:24:02.526Z,79.00
2023-02-06T10:25:03.106Z,79.00
2023-02-06T10:26:02.529Z,79.00
2023-02-06T10:27:02.943Z,80.00
2023-02-06T10:28:02.832Z,80.00
2023-02-06T10:29:02.787Z,80.00
2023-02-06T10:30:02.981Z,79.00
2023-02-06T10:31:02.677Z,80.00
2023-02-06T10:32:02.381Z,80.00
2023-02-06T10:33:02.126Z,80.00
2023-02-06T10:34:02.417Z,80.00
2023-02-06T10:35:02.277Z,80.00
2023-02-06T10:36:02.059Z,79.00
2023-02-06T10:37:01.814Z,79.00
2023-02-06T10:38:01.772Z,79.00
2023-02-06T10:39:02.234Z,79.00
2023-02-06T10:40:01.881Z,78.00
2023-02-06T10:41:01.856Z,78.00
2023-02-06T10:42:02.606Z,78.00
2023-02-06T10:43:02.269Z,78.00
2023-02-06T10:44:02.369Z,78.00
2023-02-06T10:45:17.485Z,78.00
2023-02-06T10:46:02.430Z,78.00
2023-02-06T10:47:01.977Z,77.00
2023-02-06T10:48:02.236Z,77.00
2023-02-06T10:49:01.813Z,78.00
2023-02-06T10:50:02.000Z,78.00
2023-02-06T10:51:02.049Z,78.00
2023-02-06T10:52:02.054Z,77.00
2023-02-06T10:53:02.475Z,78.00
2023-02-06T10:54:02.154Z,78.00
2023-02-06T10:55:02.084Z,79.00
2023-02-06T10:56:02.009Z,79.00
2023-02-06T10:57:03.036Z,79.00
2023-02-06T10:58:02.874Z,79.00
2023-02-06T10:59:02.808Z,78.00
2023-02-06T11:00:02.768Z,78.00
2023-02-06T11:01:04.143Z,78.00
2023-02-06T11:02:02.037Z,77.00
2023-02-06T11:03:07.579Z,77.00
2023-02-06T11:04:02.267Z,77.00
2023-02-06T11:05:02.172Z,77.00
2023-02-06T11:06:02.077Z,77.00
2023-02-06T11:07:02.141Z,76.00
2023-02-06T11:08:02.247Z,77.00
2023-02-06T11:09:02.232Z,77.00
2023-02-06T11:10:02.122Z,77.00
2023-02-06T11:11:02.220Z,76.00
2023-02-06T11:12:02.479Z,77.00
2023-02-06T11:13:02.790Z,77.00
2023-02-06T11:14:02.715Z,75.00
2023-02-06T11:15:02.481Z,75.00
2023-02-06T11:16:03.117Z,75.00
2023-02-06T11:17:02.249Z,74.00
2023-02-06T11:18:02.129Z,74.00
2023-02-06T11:19:02.124Z,75.00
2023-02-06T11:20:02.088Z,76.00
2023-02-06T11:21:01.855Z,76.00
2023-02-06T11:22:02.495Z,74.00
2023-02-06T11:23:02.590Z,75.00
2023-02-06T11:24:02.288Z,74.00
2023-02-06T11:25:02.313Z,74.00
2023-02-06T11:26:02.188Z,74.00
2023-02-06T11:27:01.795Z,74.00
2023-02-06T11:28:01.788Z,73.00
2023-02-06T11:29:01.736Z,73.00
2023-02-06T11:30:02.314Z,72.00
2023-02-06T11:31:02.056Z,72.00
2023-02-06T11:32:02.165Z,72.00
2023-02-06T11:33:04.898Z,73.00
2023-02-06T11:34:02.353Z,74.00
2023-02-06T11:35:02.139Z,72.00
2023-02-06T11:36:02.109Z,71.00
2023-02-06T11:37:02.546Z,70.00
2023-02-06T11:38:05.109Z,70.00
2023-02-06T11:39:02.577Z,69.00
2023-02-06T11:40:02.488Z,70.00
2023-02-06T11:41:02.354Z,69.00
2023-02-06T11:42:02.216Z,69.00
2023-02-06T11:43:01.983Z,70.00
2023-02-06T11:44:02.445Z,69.00
2023-02-06T11:45:01.912Z,69.00
2023-02-06T11:46:02.585Z,69.00
2023-02-06T11:47:02.329Z,69.00
2023-02-06T11:48:02.501Z,70.00
2023-02-06T11:49:02.577Z,69.00
2023-02-06T11:50:02.511Z,68.00
2023-02-06T11:51:02.534Z,68.00
2023-02-06T11:52:01.964Z,69.00
2023-02-06T11:53:01.690Z,67.00
2023-02-06T11:54:02.049Z,67.00
2023-02-06T11:55:01.986Z,67.00
2023-02-06T11:56:01.732Z,66.00
2023-02-06T11:57:02.162Z,67.00
2023-02-06T11:58:01.899Z,66.00
2023-02-06T11:59:02.355Z,67.00
2023-02-06T12:00:02.170Z,65.00
2023-02-06T12:01:02.481Z,64.00
2023-02-06T12:02:02.671Z,64.00
2023-02-06T12:03:02.317Z,64.00
2023-02-06T12:04:02.352Z,66.00
2023-02-06T12:05:02.166Z,65.00
2023-02-06T12:06:03.223Z,64.00
2023-02-06T12:07:02.574Z,64.00
2023-02-06T12:08:02.762Z,65.00
2023-02-06T12:09:02.139Z,66.00
2023-02-06T12:10:02.483Z,64.00
2023-02-06T12:11:02.624Z,64.00
2023-02-06T12:12:03.224Z,63.00
2023-02-06T12:13:03.244Z,64.00
2023-02-06T12:14:03.101Z,64.00
2023-02-06T12:15:18.175Z,64.00
2023-02-06T12:16:02.916Z,64.00
2023-02-06T12:17:03.149Z,64.00
2023-02-06T12:18:03.563Z,64.00
2023-02-06T12:19:03.285Z,63.00
2023-02-06T12:20:02.855Z,63.00
2023-02-06T12:21:03.043Z,61.00
2023-02-06T12:22:02.500Z,62.00
2023-02-06T12:23:02.838Z,62.00
2023-02-06T12:24:02.590Z,61.00
2023-02-06T12:25:02.636Z,61.00
2023-02-06T12:26:02.739Z,60.00
2023-02-06T12:27:02.397Z,58.00
2023-02-06T12:28:02.479Z,60.00
2023-02-06T12:29:02.124Z,60.00
2023-02-06T12:30:02.426Z,59.00
2023-02-06T12:31:02.186Z,59.00
2023-02-06T12:32:02.925Z,59.00
2023-02-06T12:33:02.456Z,59.00
2023-02-06T12:34:02.525Z,61.00
2023-02-06T12:35:02.890Z,61.00
2023-02-06T12:36:02.259Z,60.00
2023-02-06T12:37:03.059Z,61.00
2023-02-06T12:38:02.702Z,61.00
2023-02-06T12:39:02.852Z,61.00
2023-02-06T12:40:02.826Z,61.00
2023-02-06T12:41:02.860Z,61.00
2023-02-06T12:42:03.064Z,60.00
2023-02-06T12:43:02.967Z,60.00
2023-02-06T12:44:02.950Z,60.00
2023-02-06T12:45:02.740Z,59.00
2023-02-06T12:46:02.614Z,59.00
2023-02-06T12:47:03.230Z,59.00
2023-02-06T12:48:02.945Z,59.00
2023-02-06T12:49:03.204Z,59.00
2023-02-06T12:50:03.244Z,59.00
2023-02-06T12:51:03.045Z,59.00
2023-02-06T12:52:02.605Z,60.00
2023-02-06T12:53:01.988Z,57.00